Fort Lauderdale Executive Airport
KFXE : now visible

Airfield :











YOU CAN JOIN US ON...

 
LOGIN :

Register | Disclaimer

   EN    FR    IT 

 









Legend :    VFR   Marginal VFR   IFR   Intensive IFR   Very Intensive IFR
Visi :
Ceiling :
>= 8 km
>= 3000ft
5 to 8 km
1000 to 3000 ft
1500m to 5 km
500 to 1000 ft
800 to 1500m
200 to 500 ft
< 800m
< 200 ft
Symbols :   Thunderstorms  Fog  Heavy snow  Heavy precipitations  Wind > 20 kt






- Airport Elevation : 13 ft


KFXE - Fort Lauderdale Executive

CURRENT METAR :
  • 041553Z 00000KT 10SM SCT043 33/22 A2997 RMK AO2 SLP150 T03330217 $

EXPIRED METARs :
  • 041453Z 20004KT 10SM CLR 32/22 A2997 RMK AO2 SLP151 T03220222 50006 $
  • 041353Z 00000KT 10SM FEW022 31/24 A2997 RMK AO2 SLP151 T03110244 $

TAF KFXE
Valid from the 04 at 15:00 until the 05 at 12:00 UTC


041500Z 0415/0512 VRB06KT P6SM FEW030 SCT250
FM041700 16010KT P6SM SCT035 SCT250
FM041900 14011KT P6SM VCTS SCT030CB BKN060 BKN250
FM050000 22007KT P6SM SCT035 SCT070 BKN250
FM050300 VRB04KT P6SM FEW040 SCT250
KZMA FIR / North America



MET'MAP, your aeronautical weather chart ! - Copyright ORBIFLY December 2007 - Disclaimer

ORBIFLY MET'MAP TEAM :

Programming & Development : Alexandra Zaïnal
Concept & original design : Baudouin d'Aumeries
Assistance for programming : Marc-Olivier Méhu
Technical & hardware support : Manuel Goepfert

Contact : metmap@orbifly.com




SOURCES & CREDITS :

   NOAA       Earth
Advisory